• Join FlightAware (Why Join?)
  • Login
  • US Flag 
12:05AM EDT


 

Airport Tracker/Info


-or-


 

Live Flight TrackerFlight Track Log ✈ SWA907 ✈ 16-Jun-2013 ✈ KTPA - KMKE

Flight Track Log - Related Links

Times and Time Zones

All times are in EDT time to prevent confusion due to time zone crossing. See the SWA907 flight status page for this flight to view local times or setup timezone preferences in your user account.

Time Position Orientation Groundspeed Altitude Reporting Facility
EDT Latitude Longitude Course Direction KTS MPH feet Rate Location/Type
11:53AM 27.9667 -82.5500 180° South 167 192 900  Level Tampa TRACON
11:53AM 27.9500 -82.5500 180° South 168 193 1,700 2,280 Climbing Tampa TRACON
11:56AM 27.8700 -82.6625 231° Southwest 194 223 7,200 2,520 Climbing Jacksonville Center
11:57AM 27.9267 -82.7211 318° Northwest 205 236 10,100 2,400 Climbing Jacksonville Center
11:58AM 28.0164 -82.7328 353° North 249 287 12,100 2,580 Climbing Jacksonville Center
11:59AM 28.1186 -82.7467 353° North 310 357 15,300 2,820 Climbing Jacksonville Center
12:00PM 28.2208 -82.7606 353° North 342 394 17,800 2,520 Climbing Jacksonville Center
12:01PM 28.3336 -82.7747 354° North 377 434 20,400 2,520 Climbing Jacksonville Center
12:02PM 28.4442 -82.7911 353° North 388 447 22,900 2,160 Climbing Jacksonville Center
12:03PM 28.5589 -82.8122 351° North 408 470 24,800 1,800 Climbing Jacksonville Center
12:04PM 28.6819 -82.8381 350° North 422 486 26,600 1,620 Climbing Jacksonville Center
12:05PM 28.7864 -82.8667 347° North 427 491 28,100 1,620 Climbing Jacksonville Center
12:06PM 28.9075 -82.9139 341° North 439 505 29,900 1,920 Climbing Jacksonville Center
12:07PM 29.0306 -82.9519 345° North 445 512 32,000 1,920 Climbing Jacksonville Center
12:08PM 29.1536 -82.9900 345° North 450 518 33,800 1,860 Climbing Jacksonville Center
12:09PM 29.2747 -83.0258 346° North 455 524 35,800 1,740 Climbing Jacksonville Center
12:10PM 29.3936 -83.0619 345° North 450 518 37,300 1,080 Climbing Jacksonville Center
12:11PM 29.5272 -83.1075 343° North 440 506 38,000 300 Climbing Jacksonville Center
12:12PM 29.6461 -83.1411 346° North 440 506 38,000  Level Jacksonville Center
12:13PM 29.7631 -83.1797 344° North 440 506 38,000  Level Jacksonville Center
12:14PM 29.8842 -83.2158 346° North 438 504 38,000  Level Jacksonville Center
12:15PM 30.0008 -83.2547 344° North 432 497 38,000  Level Jacksonville Center
12:16PM 30.1114 -83.2864 346° North 438 504 38,000  Level Jacksonville Center
12:17PM 30.2325 -83.3228 345° North 438 504 38,000  Level Jacksonville Center
12:18PM 30.3597 -83.3644 344° North 433 498 38,000  Level Jacksonville Center
12:19PM 30.4783 -83.4011 345° North 438 504 38,000  Level Jacksonville Center
12:20PM 30.5972 -83.4406 344° North 438 504 38,000  Level Jacksonville Center
12:21PM 30.7183 -83.4775 345° North 438 504 38,000  Level Jacksonville Center
12:22PM 30.8350 -83.5167 344° North 438 504 38,000  Level Jacksonville Center
12:23PM 30.9558 -83.5564 344° North 438 504 38,000  Level Jacksonville Center
12:24PM 31.0789 -83.5961 345° North 438 504 38,000  Level Jacksonville Center
12:25PM 31.2764 -83.6600 345° North 449 517 38,000  Level Atlanta Center
12:26PM 31.3997 -83.7006 344° North 454 522 38,000  Level Atlanta Center
12:27PM 31.5208 -83.7417 344° North 454 522 38,000  Level Atlanta Center
12:28PM 31.6358 -83.7778 345° North 459 528 38,000  Level Atlanta Center
12:29PM 31.7589 -83.8142 346° North 459 528 38,000  Level Atlanta Center
12:30PM 31.8864 -83.8578 344° North 459 528 38,000  Level Atlanta Center
12:31PM 32.0075 -83.8967 345° North 454 522 38,000  Level Atlanta Center
12:32PM 32.1286 -83.9383 344° North 454 522 38,000  Level Atlanta Center
12:33PM 32.2517 -83.9775 345° North 454 522 38,000  Level Atlanta Center
12:34PM 32.3728 -84.0167 345° North 454 522 38,000  Level Atlanta Center
12:35PM 32.4958 -84.0586 344° North 454 522 38,000  Level Atlanta Center
12:36PM 32.6192 -84.0981 345° North 454 522 38,000  Level Atlanta Center
12:37PM 32.7400 -84.1425 343° North 454 522 38,000  Level Atlanta Center
12:38PM 32.8633 -84.1822 345° North 454 522 38,000  Level Atlanta Center
12:39PM 32.9822 -84.2219 344° North 447 514 38,000  Level Atlanta Center
12:40PM 33.1011 -84.2644 343° North 442 509 38,000  Level Atlanta Center
12:41PM 33.2178 -84.3019 345° North 437 503 38,000  Level Atlanta Center
12:42PM 33.3367 -84.3397 345° North 437 503 38,000  Level Atlanta Center
12:43PM 33.4536 -84.3800 344° North 437 503 38,000  Level Atlanta Center
12:44PM 33.5703 -84.4178 345° North 437 503 38,000  Level Atlanta Center
12:45PM 33.6872 -84.4533 346° North 437 503 38,000  Level Atlanta Center
12:46PM 33.8081 -84.4814 349° North 428 493 38,000  Level Atlanta Center
12:47PM 33.9228 -84.5119 348° North 428 493 38,000  Level Atlanta Center
12:48PM 34.0583 -84.5428 349° North 436 502 38,000  Level Atlanta Center
12:49PM 34.1708 -84.5686 349° North 445 512 38,000  Level Atlanta Center
12:50PM 34.2878 -84.5944 350° North 445 512 38,000  Level Atlanta Center
12:51PM 34.4064 -84.6228 349° North 439 505 38,000  Level Atlanta Center
12:52PM 34.5253 -84.6539 348° North 434 499 38,000  Level Atlanta Center
12:53PM 34.6544 -84.6853 349° North 428 493 38,000  Level Atlanta Center
12:54PM 34.7692 -84.7164 347° North 421 484 38,000  Level Atlanta Center
12:55PM 34.8881 -84.7453 349° North 421 484 38,000  Level Atlanta Center
12:56PM 35.0067 -84.7742 349° North 427 491 38,000  Level Atlanta Center
12:57PM 35.1233 -84.8031 349° North 427 491 38,000  Level Atlanta Center
12:58PM 35.2400 -84.8347 348° North 427 491 38,000  Level Atlanta Center
12:59PM 35.3589 -84.8639 349° North 432 497 38,000  Level Atlanta Center
01:00PM 35.4775 -84.8931 349° North 432 497 38,000  Level Atlanta Center
01:01PM 35.5983 -84.9250 348° North 432 497 38,000  Level Atlanta Center
01:02PM 35.7128 -84.9569 347° North 427 491 38,000  Level Atlanta Center
01:04PM 35.9500 -85.0117 349° North 444 511 38,000  Level Indianapolis Center
01:05PM 36.0647 -85.0419 348° North 438 504 38,000  Level Indianapolis Center
01:06PM 36.1847 -85.0711 349° North 438 504 38,000  Level Indianapolis Center
01:07PM 36.3294 -85.1097 348° North 442 509 38,000  Level Indianapolis Center
01:08PM 36.4489 -85.1400 348° North 439 505 38,000  Level Indianapolis Center
01:09PM 36.5697 -85.1700 349° North 441 507 38,000  Level Indianapolis Center
01:10PM 36.6892 -85.2017 348° North 440 506 38,000  Level Indianapolis Center
01:11PM 36.8033 -85.2500 341° North 434 499 38,000  Level Indianapolis Center
01:12PM 36.9161 -85.2997 341° North 430 495 38,000  Level Indianapolis Center
01:13PM 37.0392 -85.3533 341° North 430 495 38,000  Level Indianapolis Center
01:15PM 37.1511 -85.4022 341° North 426 490 38,000  Level Indianapolis Center
01:16PM 37.2631 -85.4531 340° North 427 491 38,000  Level Indianapolis Center
01:17PM 37.3758 -85.5036 340° North 428 493 38,000  Level Indianapolis Center
01:18PM 37.4889 -85.5528 341° North 432 497 38,000  Level Indianapolis Center
01:19PM 37.6011 -85.6036 340° North 428 493 38,000  Level Indianapolis Center
01:20PM 37.7378 -85.6656 340° North 433 498 38,000  Level Indianapolis Center
01:21PM 37.8519 -85.7153 341° North 433 498 38,000  Level Indianapolis Center
01:22PM 37.9653 -85.7689 340° North 434 499 38,000  Level Indianapolis Center
01:23PM 38.0786 -85.8208 340° North 433 498 38,000  Level Indianapolis Center
01:24PM 38.1928 -85.8717 341° North 434 499 38,000  Level Indianapolis Center
01:25PM 38.3072 -85.9250 340° North 436 502 38,000  Level Indianapolis Center
01:26PM 38.4200 -85.9758 341° North 432 497 38,000  Level Indianapolis Center
01:27PM 38.5333 -86.0289 340° North 433 498 38,000  Level Indianapolis Center
01:28PM 38.6686 -86.0914 340° North 432 497 38,000  Level Indianapolis Center
01:29PM 38.7822 -86.1444 340° North 434 499 38,000  Level Indianapolis Center
01:30PM 38.8978 -86.1975 340° North 436 502 38,000  Level Indianapolis Center
01:31PM 39.0128 -86.2517 340° North 440 506 38,000  Level Indianapolis Center
01:32PM 39.1269 -86.3047 340° North 438 504 38,000  Level Indianapolis Center
01:33PM 39.2422 -86.3592 340° North 439 505 38,000  Level Indianapolis Center
01:34PM 39.3578 -86.4139 340° North 440 506 38,000  Level Indianapolis Center
01:35PM 39.4728 -86.4692 340° North 439 505 38,000  Level Indianapolis Center
01:36PM 39.5878 -86.5250 339° North 437 503 38,000  Level Indianapolis Center
01:37PM 39.7031 -86.5789 340° North 434 499 38,000  Level Indianapolis Center
01:38PM 39.8164 -86.6336 340° North 428 493 38,000  Level Indianapolis Center
01:39PM 39.9489 -86.6967 340° North 421 484 38,000  Level Indianapolis Center
01:40PM 40.0558 -86.7539 338° Northwest 416 479 38,000 -540 Level Indianapolis Center
01:41PM 40.1583 -86.8183 334° Northwest 410 472 37,000 -1,080 Descending Indianapolis Center
01:42PM 40.1789 -86.8328 332° Northwest 411 473 36,600 -1,740 Descending Chicago Center
01:43PM 40.3092 -86.9142 335° Northwest 429 494 34,700 -1,740 Descending Chicago Center
01:44PM 40.4192 -86.9833 334° Northwest 436 502 33,100 -840 Descending Chicago Center
01:45PM 40.5281 -87.0511 335° Northwest 433 498 33,000 -60 Descending Chicago Center
01:46PM 40.6508 -87.0842 348° North 448 516 33,000  Level Chicago Center
01:47PM 40.7897 -87.1053 353° North 452 520 33,000  Level Chicago Center
01:48PM 40.9150 -87.1267 353° North 457 526 33,000  Level Chicago Center
01:49PM 41.0381 -87.1478 353° North 452 520 33,000  Level Chicago Center
01:50PM 41.1617 -87.1639 354° North 452 520 33,000 -840 Level Chicago Center
01:51PM 41.3083 -87.1792 356° North 446 513 31,300 -1,980 Descending Chicago Center
01:52PM 41.4286 -87.1933 355° North 440 506 28,900 -2,160 Descending Chicago Center
01:53PM 41.5439 -87.2094 354° North 425 489 26,800 -2,040 Descending Chicago Center
01:54PM 41.6533 -87.2222 355° North 405 466 24,800 -1,500 Descending Chicago Center
01:55PM 41.7789 -87.2381 355° North 384 442 23,800 -900 Descending Chicago Center
01:56PM 41.8783 -87.2506 355° North 368 423 23,000 -600 Descending Chicago Center
01:57PM 41.9783 -87.2625 355° North 363 418 22,600 -540 Descending Chicago Center
01:58PM 42.0753 -87.2725 356° North 354 407 22,000 -900 Descending Chicago Center
01:59PM 42.1728 -87.2828 356° North 354 407 20,800 -1,620 Descending Chicago Center
02:00PM 42.2850 -87.2975 354° North 341 392 18,700 -1,920 Descending Chicago Center
02:01PM 42.3761 -87.3089 355° North 332 382 16,900 -1,800 Descending Chicago Center
02:02PM 42.4617 -87.3208 354° North 326 375 15,100 -2,040 Descending Chicago Center
02:03PM 42.5492 -87.3306 355° North 318 366 12,800 -1,980 Descending Chicago Center
02:04PM 42.6383 -87.3414 355° North 321 369 11,100 -1,500 Descending Chicago Center
02:05PM 42.7078 -87.3886 333° Northwest 279 321 9,800 -1,380 Descending Chicago Center
02:06PM 42.7017 -87.4903 265° West 269 310 8,300 -1,620 Descending Chicago Center
02:07PM 42.6950 -87.6031 265° West 260 299 6,500 -1,560 Descending Chicago Center
02:08PM 42.7028 -87.6986 276° West 255 293 5,100 -780 Descending Chicago Center
02:09PM 42.7103 -87.7881 277° West 244 281 5,000 -480 Descending Chicago Center
02:10PM 42.7331 -87.8611 293° West 212 244 4,200 -1,020 Descending Chicago Center
02:12PM 42.7758 -87.9069 322° Northwest 216 249 3,000 -780 Descending Chicago Center
02:13PM 42.8267 -87.9161 352° North 200 230 2,600 -660 Descending Chicago Center
02:14PM 42.8842 -87.9039 North 186 214 1,700 -720 Descending Chicago Center
02:15PM 42.9211 -87.8969 North 168 193 1,200 -540 Descending Chicago Center
02:17PM 42.9333 -87.8833 336° Northwest  Level FlightAware Approximate